East Stroudsburg, PA (18302)

11:05 AM EDT on August 29, 2015 (GMT -0400)
Terra Greens Golf Course | | Change Station
CLOSE
Current Station
Personal Weather Station
Location: East Stroudsburg, PA
Elevation: 518 ft
Nearby Weather Stations

Elev 518 ft 41.01 °N, 75.17 °W | Updated 49 seconds ago

Clear
Clear
77.4 °F
Feels Like 79 °F
N
1.5
Wind Variable Wind from SSE
Gusts 4.5 mph

Today
High -- | Low -- °F
--% Chance of Precip.
Yesterday
High -- | Low -- °F
Precip. -- in
6:24 AM 7:38 PM
Full, 100% visible
Pressure 30.25 in
Visibility 10.0 miles
Clouds Clear
Heat Index 79 °F
Dew Point 54 °F
Humidity 45%
Rainfall 0.00 in
Snow Depth Not available.
UV 7 out of 12
Pollen 9.20 out of 12
Air Quality Not available.
Flu Activity Not available.
METAR KMPO 291453Z AUTO 24010KT 10SM CLR 22/14 A3026 RMK AO2 SLP243 T02220139 51001
Pressure 30.25 in
Visibility 10.0 miles
Clouds Clear
Heat Index 79 °F
Dew Point 54 °F
Humidity 45%
Rainfall 0.00 in
Snow Depth Not available.
UV 7 out of 12
Pollen 9.20 out of 12
Air Quality Not available.
Flu Activity Not available.
METAR KMPO 291453Z AUTO 24010KT 10SM CLR 22/14 A3026 RMK AO2 SLP243 T02220139 51001

10-Day Weather Forecast

×

Almanac

Astronomy

Aug. 29, 2015 Rise Set
Actual Time
Civil Twilight
Nautical Twilight
Astronomical Twilight
Moon
Length of Visible Light
Length of Day
Tomorrow will be .
, % of the Moon is Illuminated

Today's Extremes

State Highs State Lows

Community

WunderPhotos

Upload Photos

1,850,684 photos uploaded!

WunderBlogs® & News

Nearby

Air Quality

  Air Quality AQ Index Pollutant
Not available.

Snow Depth

Station Depth Elevation

Earthquake Activity

City Distance Mag. Time & Date
Minimum magnitude displayed is 2.5.

Coastal Water Temperatures

Place Temperature

Stations

Nearby Weather Stations

Station Location Temp. Windchill Dew Point Humidity Wind Precip. Elev Updated Type